sensor_id;sensor_type;location;lat;lon;timestamp;temperature;humidity
851;DHT22;412;51.400;7.480;2024-03-17T00:01:17;9.50;99.90
851;DHT22;412;51.400;7.480;2024-03-17T00:03:43;9.50;99.90
851;DHT22;412;51.400;7.480;2024-03-17T00:06:08;9.50;99.90
851;DHT22;412;51.400;7.480;2024-03-17T00:08:35;9.50;99.90
851;DHT22;412;51.400;7.480;2024-03-17T00:11:01;9.40;99.90
851;DHT22;412;51.400;7.480;2024-03-17T00:13:26;9.40;99.90
851;DHT22;412;51.400;7.480;2024-03-17T00:15:52;9.40;99.90
851;DHT22;412;51.400;7.480;2024-03-17T00:18:18;9.30;99.90
851;DHT22;412;51.400;7.480;2024-03-17T00:20:44;9.30;99.90
851;DHT22;412;51.400;7.480;2024-03-17T00:23:10;9.30;99.90
851;DHT22;412;51.400;7.480;2024-03-17T00:25:38;9.30;99.90
851;DHT22;412;51.400;7.480;2024-03-17T00:28:04;9.20;99.90
851;DHT22;412;51.400;7.480;2024-03-17T00:30:30;9.20;99.90
851;DHT22;412;51.400;7.480;2024-03-17T00:32:57;9.10;99.90
851;DHT22;412;51.400;7.480;2024-03-17T00:35:24;9.10;99.90
851;DHT22;412;51.400;7.480;2024-03-17T00:37:50;9.10;99.90
851;DHT22;412;51.400;7.480;2024-03-17T00:40:17;9.10;99.90
851;DHT22;412;51.400;7.480;2024-03-17T00:42:43;9.40;99.90
851;DHT22;412;51.400;7.480;2024-03-17T00:45:11;9.20;99.90
851;DHT22;412;51.400;7.480;2024-03-17T00:47:38;9.20;99.90
851;DHT22;412;51.400;7.480;2024-03-17T00:50:05;9.20;99.90
851;DHT22;412;51.400;7.480;2024-03-17T00:52:32;9.20;99.90
851;DHT22;412;51.400;7.480;2024-03-17T00:54:58;9.10;99.90
851;DHT22;412;51.400;7.480;2024-03-17T00:57:24;9.00;99.90
851;DHT22;412;51.400;7.480;2024-03-17T00:59:50;9.00;99.90
851;DHT22;412;51.400;7.480;2024-03-17T01:02:18;9.00;99.90
851;DHT22;412;51.400;7.480;2024-03-17T01:04:44;8.90;99.90
851;DHT22;412;51.400;7.480;2024-03-17T01:07:11;9.10;99.90
851;DHT22;412;51.400;7.480;2024-03-17T01:09:37;8.90;99.90
851;DHT22;412;51.400;7.480;2024-03-17T01:12:03;8.90;99.90
851;DHT22;412;51.400;7.480;2024-03-17T01:14:29;8.80;99.90
851;DHT22;412;51.400;7.480;2024-03-17T01:16:56;8.80;99.90
851;DHT22;412;51.400;7.480;2024-03-17T01:19:22;8.80;99.90
851;DHT22;412;51.400;7.480;2024-03-17T01:21:48;8.80;99.90
851;DHT22;412;51.400;7.480;2024-03-17T01:24:14;8.80;99.90
851;DHT22;412;51.400;7.480;2024-03-17T01:26:40;8.80;99.90
851;DHT22;412;51.400;7.480;2024-03-17T01:29:06;8.80;99.90
851;DHT22;412;51.400;7.480;2024-03-17T01:31:31;8.70;99.90
851;DHT22;412;51.400;7.480;2024-03-17T01:33:57;8.70;99.90
851;DHT22;412;51.400;7.480;2024-03-17T01:36:23;8.70;99.90
851;DHT22;412;51.400;7.480;2024-03-17T01:38:49;8.70;99.90
851;DHT22;412;51.400;7.480;2024-03-17T01:41:15;8.60;99.90
851;DHT22;412;51.400;7.480;2024-03-17T01:43:41;8.60;99.90
851;DHT22;412;51.400;7.480;2024-03-17T01:46:12;8.50;99.90
851;DHT22;412;51.400;7.480;2024-03-17T01:48:39;8.50;99.90
851;DHT22;412;51.400;7.480;2024-03-17T01:51:05;8.50;99.90
851;DHT22;412;51.400;7.480;2024-03-17T01:53:33;8.40;99.90
851;DHT22;412;51.400;7.480;2024-03-17T01:55:59;8.30;99.90
851;DHT22;412;51.400;7.480;2024-03-17T01:58:25;8.30;99.90
851;DHT22;412;51.400;7.480;2024-03-17T02:00:52;8.20;99.90
851;DHT22;412;51.400;7.480;2024-03-17T02:03:18;8.20;99.90
851;DHT22;412;51.400;7.480;2024-03-17T02:05:47;8.20;99.90
851;DHT22;412;51.400;7.480;2024-03-17T02:08:13;8.10;99.90
851;DHT22;412;51.400;7.480;2024-03-17T02:10:39;8.10;99.90
851;DHT22;412;51.400;7.480;2024-03-17T02:13:05;8.00;99.90
851;DHT22;412;51.400;7.480;2024-03-17T02:15:32;8.00;99.90
851;DHT22;412;51.400;7.480;2024-03-17T02:17:58;8.00;99.90
851;DHT22;412;51.400;7.480;2024-03-17T02:20:24;8.00;99.90
851;DHT22;412;51.400;7.480;2024-03-17T02:23:10;8.00;99.90
851;DHT22;412;51.400;7.480;2024-03-17T02:25:36;8.00;99.90
851;DHT22;412;51.400;7.480;2024-03-17T02:28:02;8.00;99.90
851;DHT22;412;51.400;7.480;2024-03-17T02:30:28;7.90;99.90
851;DHT22;412;51.400;7.480;2024-03-17T02:32:55;7.90;99.90
851;DHT22;412;51.400;7.480;2024-03-17T02:35:24;7.90;99.90
851;DHT22;412;51.400;7.480;2024-03-17T02:37:50;7.90;99.90
851;DHT22;412;51.400;7.480;2024-03-17T02:40:16;8.00;99.90
851;DHT22;412;51.400;7.480;2024-03-17T02:42:42;7.80;99.90
851;DHT22;412;51.400;7.480;2024-03-17T02:45:13;7.80;99.90
851;DHT22;412;51.400;7.480;2024-03-17T02:47:39;7.80;99.90
851;DHT22;412;51.400;7.480;2024-03-17T02:50:06;7.70;99.90
851;DHT22;412;51.400;7.480;2024-03-17T02:52:32;7.70;99.90
851;DHT22;412;51.400;7.480;2024-03-17T02:54:58;7.70;99.90
851;DHT22;412;51.400;7.480;2024-03-17T02:57:25;7.70;99.90
851;DHT22;412;51.400;7.480;2024-03-17T02:59:55;7.80;99.90
851;DHT22;412;51.400;7.480;2024-03-17T03:02:20;7.60;99.90
851;DHT22;412;51.400;7.480;2024-03-17T03:04:46;7.60;99.90
851;DHT22;412;51.400;7.480;2024-03-17T03:07:12;7.60;99.90
851;DHT22;412;51.400;7.480;2024-03-17T03:09:38;7.60;99.90
851;DHT22;412;51.400;7.480;2024-03-17T03:12:04;7.40;99.90
851;DHT22;412;51.400;7.480;2024-03-17T03:14:30;7.40;99.90
851;DHT22;412;51.400;7.480;2024-03-17T03:16:57;7.50;99.90
851;DHT22;412;51.400;7.480;2024-03-17T03:19:24;7.60;99.90
851;DHT22;412;51.400;7.480;2024-03-17T03:21:50;7.70;99.90
851;DHT22;412;51.400;7.480;2024-03-17T03:24:16;7.60;99.90
851;DHT22;412;51.400;7.480;2024-03-17T03:26:42;7.70;99.90
851;DHT22;412;51.400;7.480;2024-03-17T03:29:09;7.60;99.90
851;DHT22;412;51.400;7.480;2024-03-17T03:31:36;7.70;99.90
851;DHT22;412;51.400;7.480;2024-03-17T03:34:04;7.60;99.90
851;DHT22;412;51.400;7.480;2024-03-17T03:36:33;7.50;99.90
851;DHT22;412;51.400;7.480;2024-03-17T03:38:59;7.50;99.90
851;DHT22;412;51.400;7.480;2024-03-17T03:41:24;7.50;99.90
851;DHT22;412;51.400;7.480;2024-03-17T03:43:50;7.50;99.90
851;DHT22;412;51.400;7.480;2024-03-17T03:46:17;7.40;99.90
851;DHT22;412;51.400;7.480;2024-03-17T03:48:43;7.40;99.90
851;DHT22;412;51.400;7.480;2024-03-17T03:51:10;7.40;99.90
851;DHT22;412;51.400;7.480;2024-03-17T03:53:36;7.40;99.90
851;DHT22;412;51.400;7.480;2024-03-17T03:56:03;7.40;99.90
851;DHT22;412;51.400;7.480;2024-03-17T03:58:39;7.40;99.90
851;DHT22;412;51.400;7.480;2024-03-17T04:01:07;7.30;99.90
851;DHT22;412;51.400;7.480;2024-03-17T04:03:36;7.30;99.90
851;DHT22;412;51.400;7.480;2024-03-17T04:06:09;7.40;99.90
851;DHT22;412;51.400;7.480;2024-03-17T04:08:37;7.20;99.90
851;DHT22;412;51.400;7.480;2024-03-17T04:11:05;7.20;99.90
851;DHT22;412;51.400;7.480;2024-03-17T04:13:31;7.10;99.90
851;DHT22;412;51.400;7.480;2024-03-17T04:15:59;7.10;99.90
851;DHT22;412;51.400;7.480;2024-03-17T04:18:28;7.10;99.90
851;DHT22;412;51.400;7.480;2024-03-17T04:20:56;7.10;99.90
851;DHT22;412;51.400;7.480;2024-03-17T04:23:23;7.10;99.90
851;DHT22;412;51.400;7.480;2024-03-17T04:25:52;7.20;99.90
851;DHT22;412;51.400;7.480;2024-03-17T04:28:18;7.10;99.90
851;DHT22;412;51.400;7.480;2024-03-17T04:30:43;7.10;99.90
851;DHT22;412;51.400;7.480;2024-03-17T04:33:10;7.10;99.90
851;DHT22;412;51.400;7.480;2024-03-17T04:35:37;7.10;99.90
851;DHT22;412;51.400;7.480;2024-03-17T04:38:03;7.10;99.90
851;DHT22;412;51.400;7.480;2024-03-17T04:40:29;7.10;99.90
851;DHT22;412;51.400;7.480;2024-03-17T04:42:56;7.10;99.90
851;DHT22;412;51.400;7.480;2024-03-17T04:45:21;7.10;99.90
851;DHT22;412;51.400;7.480;2024-03-17T04:47:47;7.10;99.90
851;DHT22;412;51.400;7.480;2024-03-17T04:50:13;7.10;99.90
851;DHT22;412;51.400;7.480;2024-03-17T04:52:39;7.10;99.90
851;DHT22;412;51.400;7.480;2024-03-17T04:55:05;7.10;99.90
851;DHT22;412;51.400;7.480;2024-03-17T04:57:30;7.10;99.90
851;DHT22;412;51.400;7.480;2024-03-17T04:59:56;7.10;99.90
851;DHT22;412;51.400;7.480;2024-03-17T05:02:22;7.20;99.90
851;DHT22;412;51.400;7.480;2024-03-17T05:04:50;7.20;99.90
851;DHT22;412;51.400;7.480;2024-03-17T05:07:15;7.10;99.90
851;DHT22;412;51.400;7.480;2024-03-17T05:09:41;7.10;99.90
851;DHT22;412;51.400;7.480;2024-03-17T05:12:09;7.10;99.90
851;DHT22;412;51.400;7.480;2024-03-17T05:14:35;7.00;99.90
851;DHT22;412;51.400;7.480;2024-03-17T05:17:01;7.00;99.90
851;DHT22;412;51.400;7.480;2024-03-17T05:19:27;7.00;99.90
851;DHT22;412;51.400;7.480;2024-03-17T05:21:53;7.10;99.90
851;DHT22;412;51.400;7.480;2024-03-17T05:24:19;7.00;99.90
851;DHT22;412;51.400;7.480;2024-03-17T05:26:45;7.00;99.90
851;DHT22;412;51.400;7.480;2024-03-17T05:29:11;7.00;99.90
851;DHT22;412;51.400;7.480;2024-03-17T05:31:37;7.10;99.90
851;DHT22;412;51.400;7.480;2024-03-17T05:34:08;7.10;99.90
851;DHT22;412;51.400;7.480;2024-03-17T05:36:36;7.30;99.90
851;DHT22;412;51.400;7.480;2024-03-17T05:39:02;7.20;99.90
851;DHT22;412;51.400;7.480;2024-03-17T05:41:27;7.00;99.90
851;DHT22;412;51.400;7.480;2024-03-17T05:43:54;7.00;99.90
851;DHT22;412;51.400;7.480;2024-03-17T05:46:24;7.10;99.90
851;DHT22;412;51.400;7.480;2024-03-17T05:48:51;7.20;99.90
851;DHT22;412;51.400;7.480;2024-03-17T05:51:17;7.00;99.90
851;DHT22;412;51.400;7.480;2024-03-17T05:53:43;7.10;99.90
851;DHT22;412;51.400;7.480;2024-03-17T05:56:10;6.90;99.90
851;DHT22;412;51.400;7.480;2024-03-17T05:58:39;6.90;99.90
851;DHT22;412;51.400;7.480;2024-03-17T06:01:05;7.00;99.90
851;DHT22;412;51.400;7.480;2024-03-17T06:03:33;6.90;99.90
851;DHT22;412;51.400;7.480;2024-03-17T06:06:01;6.90;99.90
851;DHT22;412;51.400;7.480;2024-03-17T06:08:27;6.80;99.90
851;DHT22;412;51.400;7.480;2024-03-17T06:10:53;7.00;99.90
851;DHT22;412;51.400;7.480;2024-03-17T06:13:19;6.80;99.90
851;DHT22;412;51.400;7.480;2024-03-17T06:15:45;6.90;99.90
851;DHT22;412;51.400;7.480;2024-03-17T06:18:13;6.90;99.90
851;DHT22;412;51.400;7.480;2024-03-17T06:20:41;6.90;99.90
851;DHT22;412;51.400;7.480;2024-03-17T06:23:14;6.90;99.90
851;DHT22;412;51.400;7.480;2024-03-17T06:25:40;6.90;99.90
851;DHT22;412;51.400;7.480;2024-03-17T06:28:07;6.90;99.90
851;DHT22;412;51.400;7.480;2024-03-17T06:30:33;6.90;99.90
851;DHT22;412;51.400;7.480;2024-03-17T06:33:01;6.90;99.90
851;DHT22;412;51.400;7.480;2024-03-17T06:35:27;6.90;99.90
851;DHT22;412;51.400;7.480;2024-03-17T06:37:54;7.00;99.90
851;DHT22;412;51.400;7.480;2024-03-17T06:40:20;7.00;99.90
851;DHT22;412;51.400;7.480;2024-03-17T06:42:46;7.00;99.90
851;DHT22;412;51.400;7.480;2024-03-17T06:45:12;7.00;99.90
851;DHT22;412;51.400;7.480;2024-03-17T06:47:38;7.10;99.90
851;DHT22;412;51.400;7.480;2024-03-17T06:50:07;7.20;99.90
851;DHT22;412;51.400;7.480;2024-03-17T06:52:36;7.20;99.90
851;DHT22;412;51.400;7.480;2024-03-17T06:55:02;7.40;99.90
851;DHT22;412;51.400;7.480;2024-03-17T06:57:28;7.50;99.90
851;DHT22;412;51.400;7.480;2024-03-17T06:59:53;7.60;99.90
851;DHT22;412;51.400;7.480;2024-03-17T07:02:19;7.70;99.90
851;DHT22;412;51.400;7.480;2024-03-17T07:04:48;7.70;99.90
851;DHT22;412;51.400;7.480;2024-03-17T07:07:14;7.80;99.90
851;DHT22;412;51.400;7.480;2024-03-17T07:09:40;7.80;99.90
851;DHT22;412;51.400;7.480;2024-03-17T07:12:10;7.90;99.90
851;DHT22;412;51.400;7.480;2024-03-17T07:14:36;7.90;99.90
851;DHT22;412;51.400;7.480;2024-03-17T07:17:03;8.00;99.90
851;DHT22;412;51.400;7.480;2024-03-17T07:19:29;8.10;99.90
851;DHT22;412;51.400;7.480;2024-03-17T07:21:57;8.10;99.90
851;DHT22;412;51.400;7.480;2024-03-17T07:24:23;8.20;99.90
851;DHT22;412;51.400;7.480;2024-03-17T07:26:49;8.20;99.90
851;DHT22;412;51.400;7.480;2024-03-17T07:29:15;8.30;99.90
851;DHT22;412;51.400;7.480;2024-03-17T07:31:41;8.40;99.90
851;DHT22;412;51.400;7.480;2024-03-17T07:34:07;8.50;99.90
851;DHT22;412;51.400;7.480;2024-03-17T07:36:32;8.60;99.90
851;DHT22;412;51.400;7.480;2024-03-17T07:38:58;8.60;99.90
851;DHT22;412;51.400;7.480;2024-03-17T07:41:24;8.80;99.90
851;DHT22;412;51.400;7.480;2024-03-17T07:43:50;8.90;99.90
851;DHT22;412;51.400;7.480;2024-03-17T07:46:16;9.00;99.90
851;DHT22;412;51.400;7.480;2024-03-17T07:48:43;9.30;99.90
851;DHT22;412;51.400;7.480;2024-03-17T07:51:13;9.00;99.90
851;DHT22;412;51.400;7.480;2024-03-17T07:53:44;9.20;99.90
851;DHT22;412;51.400;7.480;2024-03-17T07:56:15;9.40;99.90
851;DHT22;412;51.400;7.480;2024-03-17T07:58:42;9.60;99.90
851;DHT22;412;51.400;7.480;2024-03-17T08:01:12;9.70;99.90
851;DHT22;412;51.400;7.480;2024-03-17T08:03:40;9.80;99.90
851;DHT22;412;51.400;7.480;2024-03-17T08:06:07;9.90;99.90
851;DHT22;412;51.400;7.480;2024-03-17T08:08:33;10.00;99.90
851;DHT22;412;51.400;7.480;2024-03-17T08:10:59;10.20;99.90
851;DHT22;412;51.400;7.480;2024-03-17T08:13:32;10.30;99.90
851;DHT22;412;51.400;7.480;2024-03-17T08:16:07;10.40;99.90
851;DHT22;412;51.400;7.480;2024-03-17T08:18:36;10.50;99.90
851;DHT22;412;51.400;7.480;2024-03-17T08:21:02;10.60;99.90
851;DHT22;412;51.400;7.480;2024-03-17T08:23:32;10.70;99.90
851;DHT22;412;51.400;7.480;2024-03-17T08:26:00;10.80;99.90
851;DHT22;412;51.400;7.480;2024-03-17T08:28:27;10.90;99.90
851;DHT22;412;51.400;7.480;2024-03-17T08:31:03;11.00;99.90
851;DHT22;412;51.400;7.480;2024-03-17T08:33:30;11.10;99.90
851;DHT22;412;51.400;7.480;2024-03-17T08:38:30;11.30;99.90
851;DHT22;412;51.400;7.480;2024-03-17T08:41:06;11.50;99.90
851;DHT22;412;51.400;7.480;2024-03-17T08:43:32;11.70;99.90
851;DHT22;412;51.400;7.480;2024-03-17T08:46:00;11.90;99.90
851;DHT22;412;51.400;7.480;2024-03-17T08:48:28;11.80;99.90
851;DHT22;412;51.400;7.480;2024-03-17T08:50:54;12.00;99.90
851;DHT22;412;51.400;7.480;2024-03-17T08:53:21;12.20;99.90
851;DHT22;412;51.400;7.480;2024-03-17T08:55:47;12.30;99.90
851;DHT22;412;51.400;7.480;2024-03-17T08:58:13;12.30;99.90
851;DHT22;412;51.400;7.480;2024-03-17T09:00:38;12.40;99.00
851;DHT22;412;51.400;7.480;2024-03-17T09:03:07;12.40;98.30
851;DHT22;412;51.400;7.480;2024-03-17T09:05:36;12.50;98.90
851;DHT22;412;51.400;7.480;2024-03-17T09:08:02;12.50;98.70
851;DHT22;412;51.400;7.480;2024-03-17T09:10:28;12.60;98.30
851;DHT22;412;51.400;7.480;2024-03-17T09:12:54;12.70;98.40
851;DHT22;412;51.400;7.480;2024-03-17T09:15:20;12.90;99.40
851;DHT22;412;51.400;7.480;2024-03-17T09:17:46;13.00;99.40
851;DHT22;412;51.400;7.480;2024-03-17T09:20:13;13.10;98.40
851;DHT22;412;51.400;7.480;2024-03-17T09:22:41;13.20;98.70
851;DHT22;412;51.400;7.480;2024-03-17T09:25:08;13.40;98.90
851;DHT22;412;51.400;7.480;2024-03-17T09:27:34;13.40;96.30
851;DHT22;412;51.400;7.480;2024-03-17T09:30:03;13.60;98.00
851;DHT22;412;51.400;7.480;2024-03-17T09:32:32;13.70;97.00
851;DHT22;412;51.400;7.480;2024-03-17T09:34:58;13.80;96.20
851;DHT22;412;51.400;7.480;2024-03-17T09:37:24;14.00;95.70
851;DHT22;412;51.400;7.480;2024-03-17T09:39:50;14.00;95.40
851;DHT22;412;51.400;7.480;2024-03-17T09:42:19;14.00;93.10
851;DHT22;412;51.400;7.480;2024-03-17T09:44:48;14.10;94.10
851;DHT22;412;51.400;7.480;2024-03-17T09:47:20;14.30;94.90
851;DHT22;412;51.400;7.480;2024-03-17T09:49:47;14.50;93.40
851;DHT22;412;51.400;7.480;2024-03-17T09:52:22;14.60;92.60
851;DHT22;412;51.400;7.480;2024-03-17T09:55:09;14.70;91.70
851;DHT22;412;51.400;7.480;2024-03-17T09:57:40;14.60;90.70
851;DHT22;412;51.400;7.480;2024-03-17T10:00:13;14.30;90.60
851;DHT22;412;51.400;7.480;2024-03-17T10:02:43;14.10;91.70
851;DHT22;412;51.400;7.480;2024-03-17T10:07:49;14.00;91.50
851;DHT22;412;51.400;7.480;2024-03-17T10:10:17;14.00;92.40
851;DHT22;412;51.400;7.480;2024-03-17T10:12:43;13.80;91.30
851;DHT22;412;51.400;7.480;2024-03-17T10:15:11;13.70;92.30
851;DHT22;412;51.400;7.480;2024-03-17T10:17:37;13.80;92.10
851;DHT22;412;51.400;7.480;2024-03-17T10:20:14;13.70;91.90
851;DHT22;412;51.400;7.480;2024-03-17T10:23:02;13.70;92.00
851;DHT22;412;51.400;7.480;2024-03-17T10:25:31;13.90;92.70
851;DHT22;412;51.400;7.480;2024-03-17T10:27:57;14.00;92.80
851;DHT22;412;51.400;7.480;2024-03-17T10:30:24;14.10;92.60
851;DHT22;412;51.400;7.480;2024-03-17T10:32:59;14.20;92.60
851;DHT22;412;51.400;7.480;2024-03-17T10:40:25;14.30;92.70
851;DHT22;412;51.400;7.480;2024-03-17T10:42:51;14.30;92.00
851;DHT22;412;51.400;7.480;2024-03-17T10:45:17;14.30;92.60
851;DHT22;412;51.400;7.480;2024-03-17T10:47:47;14.20;92.50
851;DHT22;412;51.400;7.480;2024-03-17T10:50:17;14.20;92.40
851;DHT22;412;51.400;7.480;2024-03-17T10:52:45;14.20;92.40
851;DHT22;412;51.400;7.480;2024-03-17T10:55:18;14.10;91.90
851;DHT22;412;51.400;7.480;2024-03-17T10:57:46;14.00;92.60
851;DHT22;412;51.400;7.480;2024-03-17T11:00:19;14.00;91.80
851;DHT22;412;51.400;7.480;2024-03-17T11:02:45;14.10;92.70
851;DHT22;412;51.400;7.480;2024-03-17T11:05:15;14.20;92.90
851;DHT22;412;51.400;7.480;2024-03-17T11:07:43;14.30;92.20
851;DHT22;412;51.400;7.480;2024-03-17T11:10:28;14.20;92.50
851;DHT22;412;51.400;7.480;2024-03-17T11:12:56;14.10;91.90
851;DHT22;412;51.400;7.480;2024-03-17T11:20:36;14.40;93.10
851;DHT22;412;51.400;7.480;2024-03-17T11:23:03;14.40;92.00
851;DHT22;412;51.400;7.480;2024-03-17T11:28:00;14.60;92.00
851;DHT22;412;51.400;7.480;2024-03-17T11:41:37;15.30;91.00
851;DHT22;412;51.400;7.480;2024-03-17T11:47:01;15.60;91.60
851;DHT22;412;51.400;7.480;2024-03-17T11:49:29;15.60;90.80
851;DHT22;412;51.400;7.480;2024-03-17T11:51:57;15.70;90.70
851;DHT22;412;51.400;7.480;2024-03-17T11:54:24;15.70;90.70
851;DHT22;412;51.400;7.480;2024-03-17T11:56:54;15.50;88.50
851;DHT22;412;51.400;7.480;2024-03-17T11:59:21;15.40;90.70
851;DHT22;412;51.400;7.480;2024-03-17T12:01:51;15.50;90.30
851;DHT22;412;51.400;7.480;2024-03-17T12:04:20;15.60;91.00
851;DHT22;412;51.400;7.480;2024-03-17T12:06:50;15.70;90.90
851;DHT22;412;51.400;7.480;2024-03-17T12:09:23;15.50;88.70
851;DHT22;412;51.400;7.480;2024-03-17T12:12:08;15.30;90.40
851;DHT22;412;51.400;7.480;2024-03-17T12:14:36;15.50;91.10
851;DHT22;412;51.400;7.480;2024-03-17T12:17:04;15.50;90.90
851;DHT22;412;51.400;7.480;2024-03-17T12:19:30;15.60;91.10
851;DHT22;412;51.400;7.480;2024-03-17T12:21:57;15.70;90.70
851;DHT22;412;51.400;7.480;2024-03-17T12:24:34;15.80;90.50
851;DHT22;412;51.400;7.480;2024-03-17T12:27:01;15.80;90.40
851;DHT22;412;51.400;7.480;2024-03-17T12:29:33;15.90;90.50
851;DHT22;412;51.400;7.480;2024-03-17T12:32:03;15.70;90.00
851;DHT22;412;51.400;7.480;2024-03-17T12:34:32;15.80;90.10
851;DHT22;412;51.400;7.480;2024-03-17T12:36:59;16.00;90.50
851;DHT22;412;51.400;7.480;2024-03-17T12:39:32;16.00;89.40
851;DHT22;412;51.400;7.480;2024-03-17T12:42:13;16.00;89.70
851;DHT22;412;51.400;7.480;2024-03-17T12:44:46;16.10;89.10
851;DHT22;412;51.400;7.480;2024-03-17T12:47:18;16.20;89.60
851;DHT22;412;51.400;7.480;2024-03-17T12:49:53;16.30;88.70
851;DHT22;412;51.400;7.480;2024-03-17T12:52:26;16.40;89.50
851;DHT22;412;51.400;7.480;2024-03-17T12:55:05;16.40;88.50
851;DHT22;412;51.400;7.480;2024-03-17T12:58:05;15.90;88.00
851;DHT22;412;51.400;7.480;2024-03-17T13:00:59;15.70;90.10
851;DHT22;412;51.400;7.480;2024-03-17T13:03:27;15.80;90.20
851;DHT22;412;51.400;7.480;2024-03-17T13:05:53;15.90;89.90
851;DHT22;412;51.400;7.480;2024-03-17T13:08:18;15.90;87.30
851;DHT22;412;51.400;7.480;2024-03-17T13:10:44;16.00;88.40
851;DHT22;412;51.400;7.480;2024-03-17T13:13:12;16.10;89.10
851;DHT22;412;51.400;7.480;2024-03-17T13:15:41;16.20;88.20
851;DHT22;412;51.400;7.480;2024-03-17T13:18:07;16.20;86.60
851;DHT22;412;51.400;7.480;2024-03-17T13:20:34;16.10;87.80
851;DHT22;412;51.400;7.480;2024-03-17T13:23:01;16.20;86.60
851;DHT22;412;51.400;7.480;2024-03-17T13:25:28;16.20;86.50
851;DHT22;412;51.400;7.480;2024-03-17T13:28:05;16.30;85.20
851;DHT22;412;51.400;7.480;2024-03-17T13:30:32;16.40;85.30
851;DHT22;412;51.400;7.480;2024-03-17T13:33:02;16.50;84.50
851;DHT22;412;51.400;7.480;2024-03-17T13:35:30;16.60;85.20
851;DHT22;412;51.400;7.480;2024-03-17T13:37:57;16.60;83.90
851;DHT22;412;51.400;7.480;2024-03-17T13:40:29;16.70;82.40
851;DHT22;412;51.400;7.480;2024-03-17T13:42:56;16.70;84.50
851;DHT22;412;51.400;7.480;2024-03-17T13:45:25;16.70;82.50
851;DHT22;412;51.400;7.480;2024-03-17T13:47:57;16.60;81.70
851;DHT22;412;51.400;7.480;2024-03-17T13:50:23;16.70;82.20
851;DHT22;412;51.400;7.480;2024-03-17T13:52:49;16.40;82.10
851;DHT22;412;51.400;7.480;2024-03-17T13:55:19;16.30;81.60
851;DHT22;412;51.400;7.480;2024-03-17T13:57:48;16.40;81.10
851;DHT22;412;51.400;7.480;2024-03-17T14:00:15;16.50;80.30
851;DHT22;412;51.400;7.480;2024-03-17T14:02:49;16.60;80.20
851;DHT22;412;51.400;7.480;2024-03-17T14:05:17;16.70;78.80
851;DHT22;412;51.400;7.480;2024-03-17T14:07:44;16.80;80.50
851;DHT22;412;51.400;7.480;2024-03-17T14:10:11;16.70;79.70
851;DHT22;412;51.400;7.480;2024-03-17T14:12:38;16.60;80.90
851;DHT22;412;51.400;7.480;2024-03-17T14:15:06;16.60;82.30
851;DHT22;412;51.400;7.480;2024-03-17T14:17:32;16.50;81.00
851;DHT22;412;51.400;7.480;2024-03-17T14:19:58;16.30;81.00
851;DHT22;412;51.400;7.480;2024-03-17T14:22:24;16.40;82.10
851;DHT22;412;51.400;7.480;2024-03-17T14:24:50;16.50;82.80
851;DHT22;412;51.400;7.480;2024-03-17T14:29:45;16.40;80.90
851;DHT22;412;51.400;7.480;2024-03-17T14:32:11;16.50;81.40
851;DHT22;412;51.400;7.480;2024-03-17T14:34:39;16.50;80.70
851;DHT22;412;51.400;7.480;2024-03-17T14:37:05;16.40;80.80
851;DHT22;412;51.400;7.480;2024-03-17T14:39:31;16.40;79.50
851;DHT22;412;51.400;7.480;2024-03-17T14:41:57;16.10;78.10
851;DHT22;412;51.400;7.480;2024-03-17T14:44:23;16.10;78.80
851;DHT22;412;51.400;7.480;2024-03-17T14:46:49;16.10;78.90
851;DHT22;412;51.400;7.480;2024-03-17T14:49:18;16.20;78.30
851;DHT22;412;51.400;7.480;2024-03-17T14:51:44;16.20;78.60
851;DHT22;412;51.400;7.480;2024-03-17T14:54:10;16.20;80.00
851;DHT22;412;51.400;7.480;2024-03-17T14:56:37;16.20;80.50
851;DHT22;412;51.400;7.480;2024-03-17T14:59:03;15.90;79.00
851;DHT22;412;51.400;7.480;2024-03-17T15:01:29;16.00;80.00
851;DHT22;412;51.400;7.480;2024-03-17T15:03:57;16.00;80.60
851;DHT22;412;51.400;7.480;2024-03-17T15:06:23;16.00;80.40
851;DHT22;412;51.400;7.480;2024-03-17T15:08:50;16.00;79.50
851;DHT22;412;51.400;7.480;2024-03-17T15:11:16;16.10;79.80
851;DHT22;412;51.400;7.480;2024-03-17T15:13:43;15.90;79.50
851;DHT22;412;51.400;7.480;2024-03-17T15:16:09;15.90;81.20
851;DHT22;412;51.400;7.480;2024-03-17T15:18:35;15.90;81.10
851;DHT22;412;51.400;7.480;2024-03-17T15:21:03;15.90;80.10
851;DHT22;412;51.400;7.480;2024-03-17T15:23:31;15.80;80.70
851;DHT22;412;51.400;7.480;2024-03-17T15:26:04;15.90;80.60
851;DHT22;412;51.400;7.480;2024-03-17T15:28:39;15.80;79.90
851;DHT22;412;51.400;7.480;2024-03-17T15:31:06;15.90;80.00
851;DHT22;412;51.400;7.480;2024-03-17T15:33:36;15.90;81.30
851;DHT22;412;51.400;7.480;2024-03-17T15:36:06;15.80;81.80
851;DHT22;412;51.400;7.480;2024-03-17T15:38:33;15.80;81.80
851;DHT22;412;51.400;7.480;2024-03-17T15:41:06;15.80;82.20
851;DHT22;412;51.400;7.480;2024-03-17T15:43:34;15.80;82.00
851;DHT22;412;51.400;7.480;2024-03-17T15:46:01;15.70;81.90
851;DHT22;412;51.400;7.480;2024-03-17T15:48:27;15.80;82.10
851;DHT22;412;51.400;7.480;2024-03-17T15:50:56;15.70;81.80
851;DHT22;412;51.400;7.480;2024-03-17T15:53:22;15.70;82.40
851;DHT22;412;51.400;7.480;2024-03-17T15:55:58;15.70;83.00
851;DHT22;412;51.400;7.480;2024-03-17T15:58:25;15.60;83.80
851;DHT22;412;51.400;7.480;2024-03-17T16:00:51;15.40;82.40
851;DHT22;412;51.400;7.480;2024-03-17T16:03:17;15.20;82.50
851;DHT22;412;51.400;7.480;2024-03-17T16:05:47;15.20;82.40
851;DHT22;412;51.400;7.480;2024-03-17T16:08:14;15.30;82.20
851;DHT22;412;51.400;7.480;2024-03-17T16:10:45;15.30;82.70
851;DHT22;412;51.400;7.480;2024-03-17T16:13:12;15.20;84.10
851;DHT22;412;51.400;7.480;2024-03-17T16:15:38;15.30;84.60
851;DHT22;412;51.400;7.480;2024-03-17T16:18:04;15.30;83.00
851;DHT22;412;51.400;7.480;2024-03-17T16:23:18;15.20;83.60
851;DHT22;412;51.400;7.480;2024-03-17T16:25:50;15.20;84.20
851;DHT22;412;51.400;7.480;2024-03-17T16:28:20;15.10;86.00
851;DHT22;412;51.400;7.480;2024-03-17T16:30:46;15.20;85.90
851;DHT22;412;51.400;7.480;2024-03-17T16:33:13;15.20;85.00
851;DHT22;412;51.400;7.480;2024-03-17T16:35:39;15.20;84.60
851;DHT22;412;51.400;7.480;2024-03-17T16:38:13;15.20;84.80
851;DHT22;412;51.400;7.480;2024-03-17T16:40:39;15.20;85.00
851;DHT22;412;51.400;7.480;2024-03-17T16:43:06;15.20;85.90
851;DHT22;412;51.400;7.480;2024-03-17T16:45:34;15.10;86.00
851;DHT22;412;51.400;7.480;2024-03-17T16:48:07;15.10;87.50
851;DHT22;412;51.400;7.480;2024-03-17T16:50:33;15.20;87.10
851;DHT22;412;51.400;7.480;2024-03-17T16:53:00;15.10;86.40
851;DHT22;412;51.400;7.480;2024-03-17T16:55:25;15.20;87.30
851;DHT22;412;51.400;7.480;2024-03-17T16:57:51;15.10;87.30
851;DHT22;412;51.400;7.480;2024-03-17T17:00:17;15.10;88.60
851;DHT22;412;51.400;7.480;2024-03-17T17:02:45;14.90;88.10
851;DHT22;412;51.400;7.480;2024-03-17T17:05:11;14.80;88.80
851;DHT22;412;51.400;7.480;2024-03-17T17:07:42;14.70;90.10
851;DHT22;412;51.400;7.480;2024-03-17T17:10:12;14.70;90.00
851;DHT22;412;51.400;7.480;2024-03-17T17:12:38;14.70;89.30
851;DHT22;412;51.400;7.480;2024-03-17T17:15:05;14.70;89.10
851;DHT22;412;51.400;7.480;2024-03-17T17:17:33;14.90;89.20
851;DHT22;412;51.400;7.480;2024-03-17T17:20:00;14.90;87.90
851;DHT22;412;51.400;7.480;2024-03-17T17:22:25;14.90;86.90